createdAt,value
2023-04-22T00:00:18.767Z,5.22
2023-04-22T00:02:45.887Z,5.16
2023-04-22T00:05:16.445Z,5.09
2023-04-22T00:07:46.039Z,5.02
2023-04-22T00:10:13.858Z,4.96
2023-04-22T00:12:40.985Z,4.86
2023-04-22T00:15:08.935Z,4.77
2023-04-22T00:17:36.584Z,4.69
2023-04-22T00:20:04.482Z,4.63
2023-04-22T00:22:31.356Z,4.60
2023-04-22T00:24:58.653Z,4.53
2023-04-22T00:27:25.888Z,4.48
2023-04-22T00:29:53.390Z,4.43
2023-04-22T00:32:22.856Z,4.40
2023-04-22T00:34:50.516Z,4.36
2023-04-22T00:37:17.718Z,4.32
2023-04-22T00:39:44.481Z,4.26
2023-04-22T00:42:12.722Z,4.21
2023-04-22T00:44:41.248Z,4.17
2023-04-22T00:47:09.668Z,4.13
2023-04-22T00:49:36.855Z,4.10
2023-04-22T00:52:04.309Z,4.06
2023-04-22T00:54:32.193Z,4.03
2023-04-22T00:56:59.772Z,3.99
2023-04-22T00:59:27.575Z,3.95
2023-04-22T01:01:54.963Z,3.90
2023-04-22T01:04:23.454Z,3.85
2023-04-22T01:06:53.712Z,3.83
2023-04-22T01:09:21.118Z,3.83
2023-04-22T01:11:48.602Z,3.80
2023-04-22T01:14:16.233Z,3.80
2023-04-22T01:16:44.594Z,3.84
2023-04-22T01:19:12.663Z,3.86
2023-04-22T01:21:40.909Z,3.92
2023-04-22T01:24:09.691Z,3.93
2023-04-22T01:26:37.502Z,3.96
2023-04-22T01:29:05.858Z,3.95
2023-04-22T01:31:34.171Z,3.89
2023-04-22T01:34:02.043Z,3.86
2023-04-22T01:36:29.554Z,3.81
2023-04-22T01:38:56.575Z,3.77
2023-04-22T01:41:26.965Z,3.75
2023-04-22T01:43:54.792Z,3.74
2023-04-22T01:46:21.885Z,3.71
2023-04-22T01:48:51.882Z,3.68
2023-04-22T01:51:22.631Z,3.65
2023-04-22T01:53:50.679Z,3.61
2023-04-22T01:56:18.619Z,3.59
2023-04-22T01:58:46.290Z,3.60
2023-04-22T02:01:14.653Z,3.63
2023-04-22T02:03:41.839Z,3.66
2023-04-22T02:06:09.281Z,3.72
2023-04-22T02:08:37.023Z,3.74
2023-04-22T02:11:04.887Z,3.80
2023-04-22T02:13:39.930Z,3.86
2023-04-22T02:16:07.750Z,3.89
2023-04-22T02:18:35.590Z,3.89
2023-04-22T02:21:03.274Z,3.93
2023-04-22T02:23:30.630Z,3.97
2023-04-22T02:25:57.855Z,4.01
2023-04-22T02:28:24.897Z,4.09
2023-04-22T02:30:52.444Z,4.17
2023-04-22T02:33:24.426Z,4.25
2023-04-22T02:35:54.305Z,4.30
2023-04-22T02:38:23.631Z,4.34
2023-04-22T02:40:51.888Z,4.42
2023-04-22T02:43:19.435Z,4.47
2023-04-22T02:45:48.058Z,4.52
2023-04-22T02:48:16.191Z,4.55
2023-04-22T02:50:43.946Z,4.59
2023-04-22T02:53:12.074Z,4.61
2023-04-22T02:55:42.533Z,4.65
2023-04-22T02:58:10.777Z,4.69
2023-04-22T03:00:38.974Z,4.70
2023-04-22T03:03:07.578Z,4.71
2023-04-22T03:05:35.431Z,4.76
2023-04-22T03:08:03.383Z,4.79
2023-04-22T03:10:30.797Z,4.89
2023-04-22T03:12:59.408Z,4.99
2023-04-22T03:15:27.738Z,5.11
2023-04-22T03:17:55.563Z,5.21
2023-04-22T03:20:24.047Z,5.35
2023-04-22T03:22:54.985Z,5.47
2023-04-22T03:25:23.133Z,5.58
2023-04-22T03:27:53.836Z,5.64
2023-04-22T03:30:22.302Z,5.70
2023-04-22T03:32:51.376Z,5.76
2023-04-22T03:35:23.068Z,5.83
2023-04-22T03:37:52.649Z,5.92
2023-04-22T03:40:25.683Z,5.97
2023-04-22T03:42:54.373Z,6.08
2023-04-22T03:45:23.694Z,6.16
2023-04-22T03:48:33.650Z,6.27
2023-04-22T03:51:03.023Z,6.35
2023-04-22T03:53:34.751Z,6.48
2023-04-22T03:56:02.100Z,6.52
2023-04-22T03:58:30.336Z,6.58
2023-04-22T04:01:00.753Z,6.62
2023-04-22T04:03:31.016Z,6.66
2023-04-22T04:06:02.973Z,6.78
2023-04-22T04:08:30.838Z,6.85
2023-04-22T04:10:59.589Z,6.89
2023-04-22T04:13:32.944Z,6.96
2023-04-22T04:16:16.495Z,7.02
2023-04-22T04:18:46.351Z,7.27
2023-04-22T04:21:14.621Z,7.52
2023-04-22T04:23:49.645Z,7.77
2023-04-22T04:26:20.843Z,8.30
2023-04-22T04:28:52.960Z,8.97
2023-04-22T04:31:23.382Z,9.70
2023-04-22T04:33:52.998Z,10.28
2023-04-22T04:36:21.197Z,10.87
2023-04-22T04:38:49.581Z,11.55
2023-04-22T04:41:16.970Z,12.19
2023-04-22T04:43:46.771Z,12.81
2023-04-22T04:46:24.292Z,13.52
2023-04-22T04:48:54.627Z,13.96
2023-04-22T04:51:22.465Z,14.24
2023-04-22T04:53:53.732Z,14.44
2023-04-22T04:56:22.385Z,14.46
2023-04-22T04:58:50.369Z,14.53
2023-04-22T05:01:24.874Z,14.52
2023-04-22T05:03:54.136Z,14.49
2023-04-22T05:06:23.967Z,14.54
2023-04-22T05:09:00.591Z,14.52
2023-04-22T05:11:28.915Z,14.56
2023-04-22T05:13:58.573Z,14.74
2023-04-22T05:16:39.040Z,14.86
2023-04-22T05:19:08.672Z,14.89
2023-04-22T05:21:36.236Z,14.92
2023-04-22T05:24:05.188Z,15.05
2023-04-22T05:26:33.325Z,15.33
2023-04-22T05:29:03.787Z,15.44
2023-04-22T05:31:32.366Z,15.46
2023-04-22T05:33:59.933Z,15.58
2023-04-22T05:36:31.141Z,15.89
2023-04-22T05:39:00.078Z,16.15
2023-04-22T05:41:28.247Z,16.25
2023-04-22T05:43:57.339Z,16.34
2023-04-22T05:46:26.717Z,16.52
2023-04-22T05:48:55.947Z,16.81
2023-04-22T05:51:43.150Z,17.06
2023-04-22T05:54:13.698Z,17.23
2023-04-22T05:56:41.427Z,17.28
2023-04-22T05:59:10.190Z,17.23
2023-04-22T06:01:38.211Z,17.27
2023-04-22T06:04:10.669Z,17.45
2023-04-22T06:06:38.527Z,17.58
2023-04-22T06:09:07.803Z,17.54
2023-04-22T06:11:35.369Z,17.55
2023-04-22T06:14:03.033Z,17.67
2023-04-22T06:16:31.017Z,17.84
2023-04-22T06:18:58.513Z,18.04
2023-04-22T06:21:27.301Z,18.19
2023-04-22T06:23:57.155Z,18.37
2023-04-22T06:26:24.369Z,18.49
2023-04-22T06:28:51.650Z,18.62
2023-04-22T06:31:21.186Z,18.85
2023-04-22T06:33:49.066Z,19.07
2023-04-22T06:36:16.972Z,19.48
2023-04-22T06:38:48.200Z,19.89
2023-04-22T06:41:40.943Z,20.56
2023-04-22T06:44:22.768Z,20.90
2023-04-22T06:47:08.950Z,21.06
2023-04-22T06:50:01.021Z,21.10
2023-04-22T06:52:37.324Z,21.41
2023-04-22T06:55:05.276Z,21.69
2023-04-22T06:57:32.780Z,21.91
2023-04-22T07:00:00.835Z,22.29
2023-04-22T07:02:30.818Z,22.66
2023-04-22T07:04:59.036Z,23.54
2023-04-22T07:07:26.653Z,24.10
2023-04-22T07:09:55.622Z,24.90
2023-04-22T07:12:27.468Z,25.67
2023-04-22T07:14:55.368Z,26.30
2023-04-22T07:17:23.046Z,27.05
2023-04-22T07:19:50.823Z,27.59
2023-04-22T07:22:18.300Z,28.10
2023-04-22T07:24:46.266Z,28.18
2023-04-22T07:27:13.355Z,29.34
2023-04-22T07:29:41.026Z,30.28
2023-04-22T07:32:09.650Z,31.05
2023-04-22T07:34:37.176Z,31.68
2023-04-22T07:37:05.313Z,31.16
2023-04-22T07:39:32.909Z,30.95
2023-04-22T07:42:03.448Z,30.83
2023-04-22T07:44:31.362Z,30.95
2023-04-22T07:47:01.563Z,30.90
2023-04-22T07:49:29.454Z,31.22
2023-04-22T07:51:57.518Z,31.57
2023-04-22T07:54:25.325Z,31.67
2023-04-22T07:56:53.201Z,31.90
2023-04-22T07:59:21.488Z,32.22
2023-04-22T08:01:49.217Z,32.59
2023-04-22T08:04:17.463Z,32.91
2023-04-22T08:06:46.140Z,32.55
2023-04-22T08:09:16.284Z,32.24
2023-04-22T08:11:44.513Z,31.77
2023-04-22T08:14:11.977Z,31.42
2023-04-22T08:16:40.691Z,30.99
2023-04-22T08:19:09.015Z,30.55
2023-04-22T08:21:37.686Z,30.17
2023-04-22T08:24:09.611Z,29.69
2023-04-22T08:26:38.603Z,29.41
2023-04-22T08:29:07.631Z,29.40
2023-04-22T08:31:35.360Z,29.13
2023-04-22T08:34:03.252Z,28.48
2023-04-22T08:36:32.240Z,28.65
2023-04-22T08:38:59.940Z,28.90
2023-04-22T08:41:27.292Z,29.35
2023-04-22T08:43:55.102Z,30.16
2023-04-22T08:46:25.627Z,30.73
2023-04-22T08:48:54.313Z,30.55
2023-04-22T08:51:23.283Z,31.14
2023-04-22T08:53:51.098Z,31.55
2023-04-22T08:56:19.330Z,31.81
2023-04-22T08:58:48.403Z,31.16
2023-04-22T09:01:19.094Z,31.57
2023-04-22T09:03:50.164Z,31.48
2023-04-22T09:06:24.641Z,31.49
2023-04-22T09:08:53.520Z,32.06
2023-04-22T09:11:21.197Z,32.42
2023-04-22T09:13:48.995Z,32.64
2023-04-22T09:16:18.121Z,33.11
2023-04-22T09:19:04.222Z,33.11
2023-04-22T09:21:34.494Z,33.40
2023-04-22T09:24:03.774Z,33.44
2023-04-22T09:26:31.973Z,33.36
2023-04-22T09:29:01.386Z,33.22
2023-04-22T09:31:29.348Z,31.38
2023-04-22T09:34:00.062Z,31.16
2023-04-22T09:36:29.618Z,29.74
2023-04-22T09:39:00.275Z,29.80
2023-04-22T09:41:31.867Z,29.75
2023-04-22T09:44:01.097Z,29.37
2023-04-22T09:46:30.636Z,29.92
2023-04-22T09:49:00.332Z,30.62
2023-04-22T09:51:29.940Z,31.37
2023-04-22T09:54:09.165Z,31.83
2023-04-22T09:56:42.309Z,32.03
2023-04-22T09:59:10.256Z,32.06
2023-04-22T10:01:41.245Z,32.16
2023-04-22T10:04:10.425Z,31.41
2023-04-22T10:06:39.289Z,30.87
2023-04-22T10:09:09.517Z,30.36
2023-04-22T10:11:38.102Z,29.82
2023-04-22T10:14:06.103Z,29.34
2023-04-22T10:16:36.111Z,28.83
2023-04-22T10:19:07.247Z,28.58
2023-04-22T10:21:35.275Z,28.81
2023-04-22T10:24:02.548Z,30.29
2023-04-22T10:26:43.205Z,30.32
2023-04-22T10:29:16.839Z,30.28
2023-04-22T10:31:55.186Z,29.78
2023-04-22T10:34:23.232Z,29.30
2023-04-22T10:37:08.610Z,28.77
2023-04-22T10:39:36.054Z,28.58
2023-04-22T10:42:03.484Z,29.13
2023-04-22T10:44:45.164Z,30.12
2023-04-22T10:47:12.294Z,30.87
2023-04-22T10:49:40.127Z,30.77
2023-04-22T10:52:10.030Z,29.47
2023-04-22T10:54:41.892Z,29.67
2023-04-22T10:57:19.718Z,29.82
2023-04-22T10:59:52.816Z,29.27
2023-04-22T11:02:22.498Z,28.75
2023-04-22T11:04:51.636Z,28.51
2023-04-22T11:07:20.574Z,28.37
2023-04-22T11:09:51.120Z,28.33
2023-04-22T11:12:39.818Z,28.65
2023-04-22T11:15:16.672Z,28.93
2023-04-22T11:17:46.473Z,29.37
2023-04-22T11:20:18.675Z,30.82
2023-04-22T11:22:48.618Z,32.42
2023-04-22T11:25:16.403Z,33.01
2023-04-22T11:27:44.320Z,33.41
2023-04-22T11:30:16.655Z,33.52
2023-04-22T11:32:49.341Z,33.17
2023-04-22T11:35:21.107Z,29.85
2023-04-22T11:37:50.070Z,29.67
2023-04-22T11:40:30.663Z,29.68
2023-04-22T11:43:01.455Z,27.35
2023-04-22T11:45:33.100Z,25.90
2023-04-22T11:48:03.362Z,24.32
2023-04-22T11:50:34.256Z,24.82
2023-04-22T11:53:04.952Z,24.74
2023-04-22T11:55:36.525Z,24.27
2023-04-22T11:58:25.770Z,23.81
2023-04-22T12:00:55.043Z,23.28
2023-04-22T12:03:33.226Z,23.77
2023-04-22T12:06:04.376Z,24.90
2023-04-22T12:08:32.895Z,26.73
2023-04-22T12:11:08.600Z,27.80
2023-04-22T12:13:38.952Z,28.09
2023-04-22T12:16:14.901Z,28.27
2023-04-22T12:18:51.237Z,27.95
2023-04-22T12:21:20.829Z,26.29
2023-04-22T12:23:49.918Z,25.57
2023-04-22T12:26:19.757Z,24.89
2023-04-22T12:28:48.219Z,24.52
2023-04-22T12:31:17.345Z,24.19
2023-04-22T12:33:46.842Z,24.51
2023-04-22T12:36:14.173Z,24.79
2023-04-22T12:38:42.272Z,24.87
2023-04-22T12:41:10.236Z,24.38
2023-04-22T12:43:38.056Z,23.78
2023-04-22T12:46:08.104Z,23.38
2023-04-22T12:48:39.092Z,23.32
2023-04-22T12:51:06.947Z,23.65
2023-04-22T12:53:34.798Z,24.38
2023-04-22T12:56:02.026Z,25.36
2023-04-22T12:58:29.680Z,26.75
2023-04-22T13:00:57.285Z,28.19
2023-04-22T13:03:24.920Z,29.67
2023-04-22T13:05:53.154Z,30.60
2023-04-22T13:08:20.461Z,30.42
2023-04-22T13:10:47.429Z,30.42
2023-04-22T13:13:18.979Z,30.05
2023-04-22T13:15:54.425Z,29.54
2023-04-22T13:18:24.011Z,28.36
2023-04-22T13:20:54.289Z,26.10
2023-04-22T13:23:26.302Z,25.00
2023-04-22T13:25:55.722Z,23.98
2023-04-22T13:28:24.314Z,24.15
2023-04-22T13:30:52.307Z,24.15
2023-04-22T13:33:23.274Z,24.11
2023-04-22T13:35:53.373Z,24.39
2023-04-22T13:38:21.590Z,24.61
2023-04-22T13:40:48.733Z,24.27
2023-04-22T13:43:16.657Z,24.14
2023-04-22T13:45:44.278Z,24.17
2023-04-22T13:48:11.845Z,23.59
2023-04-22T13:50:42.895Z,23.30
2023-04-22T13:53:12.386Z,23.17
2023-04-22T13:55:40.818Z,22.78
2023-04-22T13:58:09.001Z,22.79
2023-04-22T14:00:36.807Z,23.00
2023-04-22T14:03:05.959Z,22.79
2023-04-22T14:05:33.673Z,22.44
2023-04-22T14:08:01.807Z,22.14
2023-04-22T14:10:29.229Z,20.86
2023-04-22T14:12:56.798Z,20.84
2023-04-22T14:15:24.802Z,20.50
2023-04-22T14:17:52.143Z,20.24
2023-04-22T14:20:19.723Z,20.45
2023-04-22T14:22:47.832Z,20.75
2023-04-22T14:25:15.327Z,21.10
2023-04-22T14:27:43.311Z,21.31
2023-04-22T14:30:11.879Z,21.69
2023-04-22T14:32:39.940Z,21.97
2023-04-22T14:35:08.201Z,22.01
2023-04-22T14:37:36.588Z,21.46
2023-04-22T14:40:04.557Z,20.59
2023-04-22T14:42:32.229Z,20.13
2023-04-22T14:44:59.811Z,19.89
2023-04-22T14:47:27.406Z,19.94
2023-04-22T14:49:54.406Z,19.95
2023-04-22T14:52:21.658Z,19.57
2023-04-22T14:54:51.735Z,19.62
2023-04-22T14:57:20.050Z,19.69
2023-04-22T14:59:47.351Z,19.52
2023-04-22T15:02:16.311Z,19.64
2023-04-22T15:04:44.770Z,19.80
2023-04-22T15:07:12.382Z,19.76
2023-04-22T15:09:40.242Z,19.71
2023-04-22T15:12:08.542Z,19.45
2023-04-22T15:14:36.310Z,19.79
2023-04-22T15:17:04.506Z,19.94
2023-04-22T15:19:32.459Z,20.01
2023-04-22T15:22:00.042Z,20.09
2023-04-22T15:24:30.308Z,20.23
2023-04-22T15:26:58.377Z,20.35
2023-04-22T15:29:26.259Z,20.38
2023-04-22T15:31:54.607Z,20.29
2023-04-22T15:34:22.522Z,20.15
2023-04-22T15:36:50.099Z,20.07
2023-04-22T15:39:17.823Z,19.94
2023-04-22T15:41:44.732Z,19.16
2023-04-22T15:44:12.945Z,18.94
2023-04-22T15:46:39.845Z,18.76
2023-04-22T15:49:07.298Z,18.60
2023-04-22T15:51:34.226Z,18.67
2023-04-22T15:54:01.574Z,18.69
2023-04-22T15:56:29.897Z,18.45
2023-04-22T15:58:57.236Z,18.43
2023-04-22T16:01:24.279Z,18.15
2023-04-22T16:03:51.953Z,17.83
2023-04-22T16:06:20.269Z,17.87
2023-04-22T16:08:48.670Z,17.67
2023-04-22T16:11:16.294Z,17.48
2023-04-22T16:13:43.520Z,17.50
2023-04-22T16:16:11.463Z,17.52
2023-04-22T16:18:40.395Z,17.27
2023-04-22T16:21:10.604Z,17.23
2023-04-22T16:23:38.989Z,17.17
2023-04-22T16:26:06.601Z,17.17
2023-04-22T16:28:34.232Z,17.12
2023-04-22T16:31:02.232Z,16.98
2023-04-22T16:33:29.618Z,16.81
2023-04-22T16:35:57.685Z,16.63
2023-04-22T16:38:25.282Z,16.41
2023-04-22T16:40:54.499Z,16.18
2023-04-22T16:43:21.531Z,15.96
2023-04-22T16:45:48.974Z,15.72
2023-04-22T16:48:16.438Z,15.55
2023-04-22T16:50:43.535Z,15.35
2023-04-22T16:53:12.165Z,15.16
2023-04-22T16:55:39.144Z,14.98
2023-04-22T16:58:06.275Z,14.81
2023-04-22T17:00:33.409Z,14.62
2023-04-22T17:03:01.485Z,14.45
2023-04-22T17:05:28.602Z,14.26
2023-04-22T17:07:55.526Z,14.10
2023-04-22T17:10:22.886Z,13.94
2023-04-22T17:12:50.210Z,13.76
2023-04-22T17:15:17.582Z,13.59
2023-04-22T17:17:45.399Z,13.39
2023-04-22T17:20:13.007Z,13.17
2023-04-22T17:22:40.694Z,12.94
2023-04-22T17:25:08.860Z,12.74
2023-04-22T17:27:36.715Z,12.57
2023-04-22T17:30:04.416Z,12.42
2023-04-22T17:32:31.833Z,12.31
2023-04-22T17:34:59.101Z,12.22
2023-04-22T17:37:26.730Z,12.13
2023-04-22T17:39:53.909Z,12.07
2023-04-22T17:42:27.218Z,12.00
2023-04-22T17:44:59.398Z,11.96
2023-04-22T17:47:26.529Z,11.91
2023-04-22T17:49:53.425Z,11.85
2023-04-22T17:52:20.461Z,11.82
2023-04-22T17:54:47.710Z,11.80
2023-04-22T17:57:15.246Z,11.78
2023-04-22T17:59:43.317Z,11.75
2023-04-22T18:02:13.607Z,11.71
2023-04-22T18:04:41.534Z,11.68
2023-04-22T18:07:08.811Z,11.62
2023-04-22T18:09:35.588Z,11.63
2023-04-22T18:12:02.744Z,11.55
2023-04-22T18:14:29.706Z,11.55
2023-04-22T18:16:57.268Z,11.57
2023-04-22T18:19:24.544Z,11.57
2023-04-22T18:21:59.620Z,11.52
2023-04-22T18:24:28.484Z,11.44
2023-04-22T18:26:55.331Z,11.37
2023-04-22T18:29:22.424Z,11.32
2023-04-22T18:31:51.220Z,11.26
2023-04-22T18:34:18.982Z,11.19
2023-04-22T18:36:48.543Z,11.16
2023-04-22T18:39:16.884Z,11.14
2023-04-22T18:41:44.342Z,11.13
2023-04-22T18:44:11.357Z,11.07
2023-04-22T18:46:38.578Z,11.03
2023-04-22T18:49:05.737Z,11.01
2023-04-22T18:51:33.553Z,10.99
2023-04-22T18:54:01.023Z,10.96
2023-04-22T18:56:30.514Z,10.94
2023-04-22T18:58:57.890Z,10.94
2023-04-22T19:01:24.976Z,10.96
2023-04-22T19:03:52.674Z,10.96
2023-04-22T19:06:20.256Z,10.96
2023-04-22T19:08:50.658Z,10.96
2023-04-22T19:11:17.979Z,10.97
2023-04-22T19:13:45.485Z,10.98
2023-04-22T19:16:12.647Z,10.97
2023-04-22T19:18:40.903Z,10.93
2023-04-22T19:21:08.442Z,10.87
2023-04-22T19:23:36.268Z,10.78
2023-04-22T19:26:03.527Z,10.68
2023-04-22T19:28:31.247Z,10.58
2023-04-22T19:31:01.172Z,10.50
2023-04-22T19:33:28.928Z,10.43
2023-04-22T19:35:56.446Z,10.37
2023-04-22T19:38:24.555Z,10.29
2023-04-22T19:40:51.764Z,10.24
2023-04-22T19:43:19.795Z,10.19
2023-04-22T19:45:47.241Z,10.13
2023-04-22T19:48:14.923Z,10.10
2023-04-22T19:50:45.081Z,10.10
2023-04-22T19:53:13.760Z,10.10
2023-04-22T19:55:43.318Z,10.14
2023-04-22T19:58:11.087Z,10.17
2023-04-22T20:00:39.470Z,10.18
2023-04-22T20:03:07.657Z,10.19
2023-04-22T20:05:35.041Z,10.21
2023-04-22T20:08:03.231Z,10.24
2023-04-22T20:10:31.236Z,10.29
2023-04-22T20:13:00.057Z,10.32
2023-04-22T20:15:27.763Z,10.36
2023-04-22T20:17:56.227Z,10.38
2023-04-22T20:20:23.936Z,10.41
2023-04-22T20:22:53.180Z,10.43
2023-04-22T20:25:23.519Z,10.45
2023-04-22T20:27:51.910Z,10.48
2023-04-22T20:30:19.269Z,10.54
2023-04-22T20:33:17.259Z,10.59
2023-04-22T20:35:46.729Z,10.60
2023-04-22T20:38:15.284Z,10.64
2023-04-22T20:40:44.789Z,10.67
2023-04-22T20:43:13.140Z,10.69
2023-04-22T20:45:40.352Z,10.71
2023-04-22T20:48:08.237Z,10.75
2023-04-22T20:50:35.698Z,10.79
2023-04-22T20:53:04.267Z,10.81
2023-04-22T20:55:31.838Z,10.87
2023-04-22T20:57:58.999Z,10.89
2023-04-22T21:00:25.975Z,10.91
2023-04-22T21:02:54.239Z,10.89
2023-04-22T21:05:22.027Z,10.89
2023-04-22T21:07:55.591Z,10.87
2023-04-22T21:10:23.432Z,10.81
2023-04-22T21:12:50.965Z,10.76
2023-04-22T21:15:19.047Z,10.73
2023-04-22T21:17:52.208Z,10.68
2023-04-22T21:20:21.139Z,10.64
2023-04-22T21:22:49.049Z,10.64
2023-04-22T21:25:22.117Z,10.61
2023-04-22T21:27:50.299Z,10.60
2023-04-22T21:30:19.276Z,10.61
2023-04-22T21:32:46.356Z,10.59
2023-04-22T21:35:13.506Z,10.57
2023-04-22T21:37:40.872Z,10.55
2023-04-22T21:40:13.164Z,10.55
2023-04-22T21:42:40.300Z,10.55
2023-04-22T21:45:08.066Z,10.58
2023-04-22T21:47:35.599Z,10.59
2023-04-22T21:50:02.814Z,10.61
2023-04-22T21:52:30.084Z,10.60
2023-04-22T21:54:57.257Z,10.62
2023-04-22T21:57:24.667Z,10.61
2023-04-22T21:59:51.770Z,10.62
2023-04-22T22:02:19.354Z,10.61
2023-04-22T22:04:47.089Z,10.63
2023-04-22T22:07:14.845Z,10.64
2023-04-22T22:09:43.417Z,10.67
2023-04-22T22:12:12.223Z,10.71
2023-04-22T22:14:39.791Z,10.74
2023-04-22T22:17:08.574Z,10.79
2023-04-22T22:19:36.325Z,10.80
2023-04-22T22:22:03.577Z,10.76
2023-04-22T22:24:30.512Z,10.77
2023-04-22T22:26:58.137Z,10.75
2023-04-22T22:29:25.761Z,10.78
2023-04-22T22:31:52.846Z,10.80
2023-04-22T22:34:20.251Z,10.80
2023-04-22T22:36:47.315Z,10.81
2023-04-22T22:39:16.174Z,10.84
2023-04-22T22:41:44.252Z,10.84
2023-04-22T22:44:11.616Z,10.83
2023-04-22T22:46:40.537Z,10.82
2023-04-22T22:49:07.875Z,10.81
2023-04-22T22:51:37.885Z,10.81
2023-04-22T22:54:05.541Z,10.79
2023-04-22T22:56:32.377Z,10.77
2023-04-22T22:58:59.770Z,10.77
2023-04-22T23:01:27.168Z,10.76
2023-04-22T23:03:55.983Z,10.74
2023-04-22T23:06:23.169Z,10.74
2023-04-22T23:08:50.181Z,10.73
2023-04-22T23:11:17.235Z,10.71
2023-04-22T23:13:44.303Z,10.73
2023-04-22T23:16:11.660Z,10.72
2023-04-22T23:18:39.590Z,10.72
2023-04-22T23:21:07.271Z,10.72
2023-04-22T23:23:37.133Z,10.71
2023-04-22T23:26:04.631Z,10.71
2023-04-22T23:28:32.212Z,10.71
2023-04-22T23:31:01.384Z,10.71
2023-04-22T23:33:30.703Z,10.71
2023-04-22T23:35:59.167Z,10.69
2023-04-22T23:38:27.970Z,10.68
2023-04-22T23:40:55.624Z,10.66
2023-04-22T23:43:22.622Z,10.65
2023-04-22T23:45:49.532Z,10.64
2023-04-22T23:48:16.420Z,10.62
2023-04-22T23:50:43.798Z,10.61
2023-04-22T23:53:11.102Z,10.61
2023-04-22T23:55:38.588Z,10.60
2023-04-22T23:58:06.112Z,10.59
